sensor_id;sensor_type;location;lat;lon;timestamp;pressure;altitude;pressure_sealevel;temperature;humidity
19594;BME280;9944;48.240;16.478;2022-11-14T00:00:20;100742.16;;;4.57;89.77
19594;BME280;9944;48.240;16.478;2022-11-14T00:04:44;100743.97;;;4.58;90.24
19594;BME280;9944;48.240;16.478;2022-11-14T00:09:06;100739.78;;;4.64;90.30
19594;BME280;9944;48.240;16.478;2022-11-14T00:13:27;100739.59;;;4.59;90.25
19594;BME280;9944;48.240;16.478;2022-11-14T00:17:50;100736.31;;;4.65;90.55
19594;BME280;9944;48.240;16.478;2022-11-14T00:22:12;100734.59;;;4.65;90.66
19594;BME280;9944;48.240;16.478;2022-11-14T00:26:34;100742.53;;;4.68;90.84
19594;BME280;9944;48.240;16.478;2022-11-14T00:30:55;100740.88;;;4.70;90.82
19594;BME280;9944;48.240;16.478;2022-11-14T00:35:18;100737.41;;;4.71;90.86
19594;BME280;9944;48.240;16.478;2022-11-14T00:39:40;100738.34;;;4.73;90.67
19594;BME280;9944;48.240;16.478;2022-11-14T00:44:02;100740.88;;;4.70;90.84
19594;BME280;9944;48.240;16.478;2022-11-14T00:48:23;100725.19;;;4.70;90.91
19594;BME280;9944;48.240;16.478;2022-11-14T00:52:46;100726.13;;;4.72;91.43
19594;BME280;9944;48.240;16.478;2022-11-14T00:57:08;100707.94;;;4.75;91.54
19594;BME280;9944;48.240;16.478;2022-11-14T01:01:30;100705.41;;;4.78;91.32
19594;BME280;9944;48.240;16.478;2022-11-14T01:05:51;100708.03;;;4.78;91.38
19594;BME280;9944;48.240;16.478;2022-11-14T01:10:15;100703.75;;;4.81;91.51
19594;BME280;9944;48.240;16.478;2022-11-14T01:14:38;100706.44;;;4.84;91.81
19594;BME280;9944;48.240;16.478;2022-11-14T01:19:00;100696.97;;;4.86;91.89
19594;BME280;9944;48.240;16.478;2022-11-14T01:23:22;100697.91;;;4.88;92.24
19594;BME280;9944;48.240;16.478;2022-11-14T01:27:45;100685.75;;;4.90;91.98
19594;BME280;9944;48.240;16.478;2022-11-14T01:32:07;100671.00;;;4.92;92.01
19594;BME280;9944;48.240;16.478;2022-11-14T01:36:28;100673.59;;;4.92;92.11
19594;BME280;9944;48.240;16.478;2022-11-14T01:40:50;100669.25;;;4.92;91.92
19594;BME280;9944;48.240;16.478;2022-11-14T01:50:17;100659.59;;;4.90;91.85
19594;BME280;9944;48.240;16.478;2022-11-14T01:54:42;100660.53;;;4.92;91.70
19594;BME280;9944;48.240;16.478;2022-11-14T01:59:09;100657.03;;;4.91;91.97
19594;BME280;9944;48.240;16.478;2022-11-14T02:03:32;100663.13;;;4.92;92.28
19594;BME280;9944;48.240;16.478;2022-11-14T02:07:57;100674.53;;;4.94;92.21
19594;BME280;9944;48.240;16.478;2022-11-14T02:12:18;100670.47;;;5.02;92.51
19594;BME280;9944;48.240;16.478;2022-11-14T02:16:41;100661.97;;;5.09;92.59
19594;BME280;9944;48.240;16.478;2022-11-14T02:21:24;100667.41;;;5.15;92.77
19594;BME280;9944;48.240;16.478;2022-11-14T02:25:46;100665.72;;;5.18;92.51
19594;BME280;9944;48.240;16.478;2022-11-14T02:30:10;100677.94;;;5.19;92.42
19594;BME280;9944;48.240;16.478;2022-11-14T02:34:33;100669.38;;;5.23;92.19
19594;BME280;9944;48.240;16.478;2022-11-14T02:38:56;100671.13;;;5.24;92.37
19594;BME280;9944;48.240;16.478;2022-11-14T02:43:18;100675.50;;;5.23;92.15
19594;BME280;9944;48.240;16.478;2022-11-14T02:47:40;100677.28;;;5.24;91.85
19594;BME280;9944;48.240;16.478;2022-11-14T02:52:01;100664.19;;;5.24;92.09
19594;BME280;9944;48.240;16.478;2022-11-14T02:56:25;100666.00;;;5.27;92.05
19594;BME280;9944;48.240;16.478;2022-11-14T03:00:46;100660.78;;;5.27;92.22
19594;BME280;9944;48.240;16.478;2022-11-14T03:05:28;100655.44;;;5.24;91.95
19594;BME280;9944;48.240;16.478;2022-11-14T03:09:50;100649.22;;;5.20;91.60
19594;BME280;9944;48.240;16.478;2022-11-14T03:14:13;100650.78;;;5.13;91.41
19594;BME280;9944;48.240;16.478;2022-11-14T03:18:35;100643.59;;;5.08;91.03
19594;BME280;9944;48.240;16.478;2022-11-14T03:22:57;100648.66;;;5.02;90.76
19594;BME280;9944;48.240;16.478;2022-11-14T03:27:19;100649.31;;;4.96;91.05
19594;BME280;9944;48.240;16.478;2022-11-14T03:31:42;100654.53;;;4.96;91.05
19594;BME280;9944;48.240;16.478;2022-11-14T03:36:05;100652.19;;;5.04;91.89
19594;BME280;9944;48.240;16.478;2022-11-14T03:40:27;100652.38;;;5.10;92.01
19594;BME280;9944;48.240;16.478;2022-11-14T03:44:48;100657.75;;;5.14;92.04
19594;BME280;9944;48.240;16.478;2022-11-14T03:49:11;100653.50;;;5.18;91.58
19594;BME280;9944;48.240;16.478;2022-11-14T03:53:33;100662.25;;;5.19;91.65
19594;BME280;9944;48.240;16.478;2022-11-14T03:57:54;100646.53;;;5.17;91.40
19594;BME280;9944;48.240;16.478;2022-11-14T04:02:16;100643.00;;;5.16;91.48
19594;BME280;9944;48.240;16.478;2022-11-14T04:06:39;100637.88;;;5.20;91.30
19594;BME280;9944;48.240;16.478;2022-11-14T04:11:01;100627.41;;;5.20;91.59
19594;BME280;9944;48.240;16.478;2022-11-14T04:15:23;100625.72;;;5.22;91.42
19594;BME280;9944;48.240;16.478;2022-11-14T04:19:44;100618.00;;;5.26;91.57
19594;BME280;9944;48.240;16.478;2022-11-14T04:24:07;100627.63;;;5.27;91.50
19594;BME280;9944;48.240;16.478;2022-11-14T04:28:30;100627.69;;;5.29;91.71
19594;BME280;9944;48.240;16.478;2022-11-14T04:32:52;100626.91;;;5.31;91.63
19594;BME280;9944;48.240;16.478;2022-11-14T04:37:14;100620.81;;;5.32;91.88
19594;BME280;9944;48.240;16.478;2022-11-14T04:41:37;100614.88;;;5.38;91.93
19594;BME280;9944;48.240;16.478;2022-11-14T04:45:59;100605.41;;;5.42;92.04
19594;BME280;9944;48.240;16.478;2022-11-14T04:50:20;100605.41;;;5.42;91.90
19594;BME280;9944;48.240;16.478;2022-11-14T04:54:42;100600.09;;;5.40;91.64
19594;BME280;9944;48.240;16.478;2022-11-14T04:59:05;100607.97;;;5.40;91.60
19594;BME280;9944;48.240;16.478;2022-11-14T05:03:26;100594.88;;;5.40;91.44
19594;BME280;9944;48.240;16.478;2022-11-14T05:07:47;100600.88;;;5.36;91.37
19594;BME280;9944;48.240;16.478;2022-11-14T05:12:09;100593.00;;;5.36;91.61
19594;BME280;9944;48.240;16.478;2022-11-14T05:16:32;100590.34;;;5.34;91.54
19594;BME280;9944;48.240;16.478;2022-11-14T05:20:57;100586.00;;;5.35;92.08
19594;BME280;9944;48.240;16.478;2022-11-14T05:25:18;100575.63;;;5.38;91.96
19594;BME280;9944;48.240;16.478;2022-11-14T05:29:40;100564.47;;;5.45;92.10
19594;BME280;9944;48.240;16.478;2022-11-14T05:34:03;100565.31;;;5.44;91.91
19594;BME280;9944;48.240;16.478;2022-11-14T05:38:24;100574.03;;;5.43;91.92
19594;BME280;9944;48.240;16.478;2022-11-14T05:42:45;100565.25;;;5.43;91.57
19594;BME280;9944;48.240;16.478;2022-11-14T05:47:07;100582.66;;;5.41;91.54
19594;BME280;9944;48.240;16.478;2022-11-14T05:51:30;100582.81;;;5.45;92.27
19594;BME280;9944;48.240;16.478;2022-11-14T05:55:53;100586.34;;;5.47;92.45
19594;BME280;9944;48.240;16.478;2022-11-14T06:00:15;100587.34;;;5.51;92.40
19594;BME280;9944;48.240;16.478;2022-11-14T06:04:37;100579.56;;;5.54;92.34
19594;BME280;9944;48.240;16.478;2022-11-14T06:09:00;100585.78;;;5.58;92.54
19594;BME280;9944;48.240;16.478;2022-11-14T06:13:22;100599.03;;;5.62;92.79
19594;BME280;9944;48.240;16.478;2022-11-14T06:17:44;100596.53;;;5.67;92.74
19594;BME280;9944;48.240;16.478;2022-11-14T06:22:06;100601.75;;;5.67;92.66
19594;BME280;9944;48.240;16.478;2022-11-14T06:26:29;100611.41;;;5.68;93.05
19594;BME280;9944;48.240;16.478;2022-11-14T06:30:56;100606.22;;;5.69;92.70
19594;BME280;9944;48.240;16.478;2022-11-14T06:35:18;100609.66;;;5.68;92.64
19594;BME280;9944;48.240;16.478;2022-11-14T06:39:39;100606.16;;;5.68;92.65
19594;BME280;9944;48.240;16.478;2022-11-14T06:44:03;100602.78;;;5.72;92.63
19594;BME280;9944;48.240;16.478;2022-11-14T06:48:25;100608.03;;;5.72;92.81
19594;BME280;9944;48.240;16.478;2022-11-14T06:52:47;100605.41;;;5.72;92.83
19594;BME280;9944;48.240;16.478;2022-11-14T06:57:08;100618.59;;;5.75;92.83
19594;BME280;9944;48.240;16.478;2022-11-14T07:01:31;100609.91;;;5.76;92.94
19594;BME280;9944;48.240;16.478;2022-11-14T07:05:56;100612.53;;;5.78;93.09
19594;BME280;9944;48.240;16.478;2022-11-14T07:10:18;100613.53;;;5.81;92.85
19594;BME280;9944;48.240;16.478;2022-11-14T07:14:40;100603.13;;;5.84;93.10
19594;BME280;9944;48.240;16.478;2022-11-14T07:19:04;100606.72;;;5.88;92.86
19594;BME280;9944;48.240;16.478;2022-11-14T07:23:29;100619.03;;;5.90;92.80
19594;BME280;9944;48.240;16.478;2022-11-14T07:27:51;100613.03;;;5.95;92.95
19594;BME280;9944;48.240;16.478;2022-11-14T07:32:13;100603.56;;;6.00;92.98
19594;BME280;9944;48.240;16.478;2022-11-14T07:36:36;100606.28;;;6.03;92.85
19594;BME280;9944;48.240;16.478;2022-11-14T07:40:58;100602.88;;;6.07;92.72
19594;BME280;9944;48.240;16.478;2022-11-14T07:45:20;100611.72;;;6.10;92.84
19594;BME280;9944;48.240;16.478;2022-11-14T07:49:41;100607.28;;;6.08;92.11
19594;BME280;9944;48.240;16.478;2022-11-14T07:54:05;100605.47;;;6.05;92.23
19594;BME280;9944;48.240;16.478;2022-11-14T07:58:26;100605.44;;;6.04;92.21
19594;BME280;9944;48.240;16.478;2022-11-14T08:02:48;100612.44;;;6.05;92.24
19594;BME280;9944;48.240;16.478;2022-11-14T08:07:09;100608.19;;;6.08;92.39
19594;BME280;9944;48.240;16.478;2022-11-14T08:11:33;100599.53;;;6.11;92.25
19594;BME280;9944;48.240;16.478;2022-11-14T08:16:10;100581.22;;;6.14;91.98
19594;BME280;9944;48.240;16.478;2022-11-14T08:20:33;100583.03;;;6.15;91.96
19594;BME280;9944;48.240;16.478;2022-11-14T08:24:54;100585.88;;;6.24;92.39
19594;BME280;9944;48.240;16.478;2022-11-14T08:29:17;100578.16;;;6.29;92.38
19594;BME280;9944;48.240;16.478;2022-11-14T08:33:39;100576.47;;;6.33;92.01
19594;BME280;9944;48.240;16.478;2022-11-14T08:38:00;100570.50;;;6.38;91.95
19594;BME280;9944;48.240;16.478;2022-11-14T08:42:22;100561.75;;;6.38;91.65
19594;BME280;9944;48.240;16.478;2022-11-14T08:46:45;100555.69;;;6.39;90.99
19594;BME280;9944;48.240;16.478;2022-11-14T08:51:07;100559.41;;;6.47;91.72
19594;BME280;9944;48.240;16.478;2022-11-14T08:55:28;100556.16;;;6.57;91.70
19594;BME280;9944;48.240;16.478;2022-11-14T08:59:50;100549.38;;;6.65;91.27
19594;BME280;9944;48.240;16.478;2022-11-14T09:04:13;100558.25;;;6.71;90.86
19594;BME280;9944;48.240;16.478;2022-11-14T09:08:36;100553.16;;;6.78;90.67
19594;BME280;9944;48.240;16.478;2022-11-14T09:12:59;100547.94;;;6.80;90.40
19594;BME280;9944;48.240;16.478;2022-11-14T09:17:20;100543.66;;;6.83;89.80
19594;BME280;9944;48.240;16.478;2022-11-14T09:21:43;100542.06;;;6.90;90.01
19594;BME280;9944;48.240;16.478;2022-11-14T09:26:06;100529.91;;;6.94;89.72
19594;BME280;9944;48.240;16.478;2022-11-14T09:30:28;100530.03;;;6.98;89.22
19594;BME280;9944;48.240;16.478;2022-11-14T09:34:49;100527.56;;;7.04;89.32
19594;BME280;9944;48.240;16.478;2022-11-14T09:39:12;100514.47;;;7.08;89.06
19594;BME280;9944;48.240;16.478;2022-11-14T09:43:46;100511.19;;;7.18;89.14
19594;BME280;9944;48.240;16.478;2022-11-14T09:48:36;100501.66;;;7.23;88.96
19594;BME280;9944;48.240;16.478;2022-11-14T09:53:02;100497.41;;;7.28;88.46
19594;BME280;9944;48.240;16.478;2022-11-14T09:57:27;100489.59;;;7.31;88.20
19594;BME280;9944;48.240;16.478;2022-11-14T10:01:56;100475.66;;;7.35;88.09
19594;BME280;9944;48.240;16.478;2022-11-14T10:06:26;100470.56;;;7.41;87.60
19594;BME280;9944;48.240;16.478;2022-11-14T10:10:52;100469.75;;;7.46;87.09
19594;BME280;9944;48.240;16.478;2022-11-14T10:15:20;100463.56;;;7.43;86.78
19594;BME280;9944;48.240;16.478;2022-11-14T10:19:56;100446.03;;;7.42;86.53
19594;BME280;9944;48.240;16.478;2022-11-14T10:24:32;100440.84;;;7.46;86.77
19594;BME280;9944;48.240;16.478;2022-11-14T10:29:22;100435.66;;;7.49;86.94
19594;BME280;9944;48.240;16.478;2022-11-14T10:33:56;100432.34;;;7.59;86.95
19594;BME280;9944;48.240;16.478;2022-11-14T10:38:24;100437.66;;;7.62;86.79
19594;BME280;9944;48.240;16.478;2022-11-14T10:42:50;100439.41;;;7.63;86.52
19594;BME280;9944;48.240;16.478;2022-11-14T10:47:17;100428.97;;;7.66;86.03
19594;BME280;9944;48.240;16.478;2022-11-14T10:51:43;100430.63;;;7.61;85.63
19594;BME280;9944;48.240;16.478;2022-11-14T10:56:09;100414.09;;;7.67;86.26
19594;BME280;9944;48.240;16.478;2022-11-14T11:00:31;100409.78;;;7.70;85.63
19594;BME280;9944;48.240;16.478;2022-11-14T11:05:03;100415.09;;;7.73;85.74
19594;BME280;9944;48.240;16.478;2022-11-14T11:09:35;100412.41;;;7.70;84.96
19594;BME280;9944;48.240;16.478;2022-11-14T11:14:22;100407.97;;;7.66;84.63
19594;BME280;9944;48.240;16.478;2022-11-14T11:18:44;100413.28;;;7.69;85.30
19594;BME280;9944;48.240;16.478;2022-11-14T11:23:17;100401.94;;;7.73;84.66
19594;BME280;9944;48.240;16.478;2022-11-14T11:27:40;100403.63;;;7.70;84.50
19594;BME280;9944;48.240;16.478;2022-11-14T11:32:02;100397.50;;;7.69;84.16
19594;BME280;9944;48.240;16.478;2022-11-14T11:36:23;100385.28;;;7.71;84.31
19594;BME280;9944;48.240;16.478;2022-11-14T11:40:48;100380.88;;;7.70;84.58
19594;BME280;9944;48.240;16.478;2022-11-14T11:45:14;100373.16;;;7.79;84.83
19594;BME280;9944;48.240;16.478;2022-11-14T11:49:42;100366.19;;;7.82;84.18
19594;BME280;9944;48.240;16.478;2022-11-14T11:54:15;100355.66;;;7.82;84.38
19594;BME280;9944;48.240;16.478;2022-11-14T11:58:42;100360.13;;;7.87;84.95
19594;BME280;9944;48.240;16.478;2022-11-14T12:03:11;100352.38;;;7.95;84.87
19594;BME280;9944;48.240;16.478;2022-11-14T12:07:44;100341.09;;;8.02;84.63
19594;BME280;9944;48.240;16.478;2022-11-14T12:12:12;100332.50;;;8.14;84.91
19594;BME280;9944;48.240;16.478;2022-11-14T12:16:57;100328.25;;;8.24;84.73
19594;BME280;9944;48.240;16.478;2022-11-14T12:21:36;100330.19;;;8.34;84.48
19594;BME280;9944;48.240;16.478;2022-11-14T12:26:11;100327.69;;;8.43;83.97
19594;BME280;9944;48.240;16.478;2022-11-14T12:30:45;100324.28;;;8.50;83.69
19594;BME280;9944;48.240;16.478;2022-11-14T12:35:15;100325.28;;;8.62;83.41
19594;BME280;9944;48.240;16.478;2022-11-14T12:39:40;100323.66;;;8.70;83.02
19594;BME280;9944;48.240;16.478;2022-11-14T12:44:16;100325.53;;;8.80;82.88
19594;BME280;9944;48.240;16.478;2022-11-14T12:48:40;100323.84;;;8.85;81.92
19594;BME280;9944;48.240;16.478;2022-11-14T12:53:02;100323.09;;;8.97;82.38
19594;BME280;9944;48.240;16.478;2022-11-14T12:57:28;100327.56;;;9.03;81.48
19594;BME280;9944;48.240;16.478;2022-11-14T13:02:23;100324.06;;;9.07;81.78
19594;BME280;9944;48.240;16.478;2022-11-14T13:06:56;100324.19;;;9.19;81.75
19594;BME280;9944;48.240;16.478;2022-11-14T13:11:34;100322.44;;;9.17;81.08
19594;BME280;9944;48.240;16.478;2022-11-14T13:16:24;100312.78;;;9.19;80.45
19594;BME280;9944;48.240;16.478;2022-11-14T13:21:05;100313.63;;;9.13;80.11
19594;BME280;9944;48.240;16.478;2022-11-14T13:31:17;100326.66;;;9.01;79.52
19594;BME280;9944;48.240;16.478;2022-11-14T13:36:02;100316.94;;;8.97;79.81
19594;BME280;9944;48.240;16.478;2022-11-14T13:40:32;100319.44;;;8.86;79.67
19594;BME280;9944;48.240;16.478;2022-11-14T13:45:35;100319.31;;;8.73;79.59
19594;BME280;9944;48.240;16.478;2022-11-14T13:50:03;100318.34;;;8.67;80.03
19594;BME280;9944;48.240;16.478;2022-11-14T13:54:27;100311.25;;;8.60;79.88
19594;BME280;9944;48.240;16.478;2022-11-14T13:59:03;100314.69;;;8.54;80.14
19594;BME280;9944;48.240;16.478;2022-11-14T14:03:47;100302.34;;;8.51;80.33
19594;BME280;9944;48.240;16.478;2022-11-14T14:08:23;100302.28;;;8.45;80.39
19594;BME280;9944;48.240;16.478;2022-11-14T14:12:59;100311.03;;;8.44;80.46
19594;BME280;9944;48.240;16.478;2022-11-14T14:17:30;100308.34;;;8.40;80.56
19594;BME280;9944;48.240;16.478;2022-11-14T14:21:59;100313.56;;;8.35;80.57
19594;BME280;9944;48.240;16.478;2022-11-14T14:26:30;100317.78;;;8.27;80.21
19594;BME280;9944;48.240;16.478;2022-11-14T14:31:01;100302.75;;;8.18;80.66
19594;BME280;9944;48.240;16.478;2022-11-14T14:35:24;100321.03;;;8.07;80.88
19594;BME280;9944;48.240;16.478;2022-11-14T14:39:57;100312.06;;;7.96;80.79
19594;BME280;9944;48.240;16.478;2022-11-14T14:44:22;100310.28;;;7.93;81.36
19594;BME280;9944;48.240;16.478;2022-11-14T14:48:47;100307.59;;;7.90;81.37
19594;BME280;9944;48.240;16.478;2022-11-14T14:53:18;100304.00;;;7.84;81.78
19594;BME280;9944;48.240;16.478;2022-11-14T14:57:40;100312.69;;;7.78;81.91
19594;BME280;9944;48.240;16.478;2022-11-14T15:02:02;100310.84;;;7.72;82.45
19594;BME280;9944;48.240;16.478;2022-11-14T15:06:28;100316.06;;;7.71;82.24
19594;BME280;9944;48.240;16.478;2022-11-14T15:10:56;100306.38;;;7.68;82.87
19594;BME280;9944;48.240;16.478;2022-11-14T15:15:19;100302.81;;;7.65;82.92
19594;BME280;9944;48.240;16.478;2022-11-14T15:19:44;100306.31;;;7.65;83.37
19594;BME280;9944;48.240;16.478;2022-11-14T15:24:14;100310.78;;;7.69;83.82
19594;BME280;9944;48.240;16.478;2022-11-14T15:28:36;100302.06;;;7.72;84.11
19594;BME280;9944;48.240;16.478;2022-11-14T15:32:59;100294.16;;;7.70;84.20
19594;BME280;9944;48.240;16.478;2022-11-14T15:37:21;100306.50;;;7.74;84.29
19594;BME280;9944;48.240;16.478;2022-11-14T15:41:45;100304.78;;;7.76;84.09
19594;BME280;9944;48.240;16.478;2022-11-14T15:46:26;100288.94;;;7.73;83.86
19594;BME280;9944;48.240;16.478;2022-11-14T15:50:49;100293.28;;;7.71;83.69
19594;BME280;9944;48.240;16.478;2022-11-14T15:55:13;100295.03;;;7.69;83.49
19594;BME280;9944;48.240;16.478;2022-11-14T15:59:37;100290.56;;;7.64;84.03
19594;BME280;9944;48.240;16.478;2022-11-14T16:03:58;100286.88;;;7.54;83.72
19594;BME280;9944;48.240;16.478;2022-11-14T16:08:20;100286.75;;;7.45;83.54
19594;BME280;9944;48.240;16.478;2022-11-14T16:12:42;100292.81;;;7.42;84.27
19594;BME280;9944;48.240;16.478;2022-11-14T16:17:13;100292.00;;;7.45;84.42
19594;BME280;9944;48.240;16.478;2022-11-14T16:21:36;100292.88;;;7.45;84.75
19594;BME280;9944;48.240;16.478;2022-11-14T16:25:57;100291.19;;;7.49;85.40
19594;BME280;9944;48.240;16.478;2022-11-14T16:30:20;100293.91;;;7.55;85.05
19594;BME280;9944;48.240;16.478;2022-11-14T16:34:44;100297.47;;;7.57;84.90
19594;BME280;9944;48.240;16.478;2022-11-14T16:39:05;100296.56;;;7.58;85.10
19594;BME280;9944;48.240;16.478;2022-11-14T16:43:30;100293.94;;;7.58;85.09
19594;BME280;9944;48.240;16.478;2022-11-14T16:47:52;100293.94;;;7.58;85.32
19594;BME280;9944;48.240;16.478;2022-11-14T16:52:15;100290.53;;;7.62;85.53
19594;BME280;9944;48.240;16.478;2022-11-14T16:56:38;100287.09;;;7.66;85.41
19594;BME280;9944;48.240;16.478;2022-11-14T17:01:00;100280.09;;;7.68;85.41
19594;BME280;9944;48.240;16.478;2022-11-14T17:05:22;100274.91;;;7.71;85.43
19594;BME280;9944;48.240;16.478;2022-11-14T17:09:45;100273.22;;;7.75;85.52
19594;BME280;9944;48.240;16.478;2022-11-14T17:14:07;100274.94;;;7.73;85.02
19594;BME280;9944;48.240;16.478;2022-11-14T17:18:29;100261.75;;;7.71;85.10
19594;BME280;9944;48.240;16.478;2022-11-14T17:22:57;100269.66;;;7.71;85.14
19594;BME280;9944;48.240;16.478;2022-11-14T17:27:21;100270.53;;;7.73;85.05
19594;BME280;9944;48.240;16.478;2022-11-14T17:31:43;100262.59;;;7.67;84.86
19594;BME280;9944;48.240;16.478;2022-11-14T17:36:08;100262.53;;;7.64;84.67
19594;BME280;9944;48.240;16.478;2022-11-14T17:40:30;100257.19;;;7.59;84.83
19594;BME280;9944;48.240;16.478;2022-11-14T17:44:53;100266.84;;;7.60;84.98
19594;BME280;9944;48.240;16.478;2022-11-14T17:49:18;100263.31;;;7.58;84.47
19594;BME280;9944;48.240;16.478;2022-11-14T17:53:42;100261.56;;;7.59;84.72
19594;BME280;9944;48.240;16.478;2022-11-14T17:58:04;100262.41;;;7.58;84.59
19594;BME280;9944;48.240;16.478;2022-11-14T18:02:28;100247.53;;;7.57;84.61
19594;BME280;9944;48.240;16.478;2022-11-14T18:06:49;100230.75;;;7.49;84.12
19594;BME280;9944;48.240;16.478;2022-11-14T18:11:12;100219.28;;;7.42;84.45
19594;BME280;9944;48.240;16.478;2022-11-14T18:15:36;100224.50;;;7.40;84.70
19594;BME280;9944;48.240;16.478;2022-11-14T18:19:59;100232.25;;;7.31;84.38
19594;BME280;9944;48.240;16.478;2022-11-14T18:24:21;100242.69;;;7.28;84.64
19594;BME280;9944;48.240;16.478;2022-11-14T18:28:43;100239.22;;;7.29;84.49
19594;BME280;9944;48.240;16.478;2022-11-14T18:33:05;100237.44;;;7.28;84.28
19594;BME280;9944;48.240;16.478;2022-11-14T18:37:28;100240.88;;;7.24;84.17
19594;BME280;9944;48.240;16.478;2022-11-14T18:41:52;100236.44;;;7.21;83.93
19594;BME280;9944;48.240;16.478;2022-11-14T18:46:15;100236.38;;;7.17;83.77
19594;BME280;9944;48.240;16.478;2022-11-14T18:50:37;100238.06;;;7.15;84.02
19594;BME280;9944;48.240;16.478;2022-11-14T18:55:12;100237.13;;;7.10;83.85
19594;BME280;9944;48.240;16.478;2022-11-14T18:59:34;100229.16;;;7.05;83.77
19594;BME280;9944;48.240;16.478;2022-11-14T19:03:57;100228.22;;;7.01;83.50
19594;BME280;9944;48.240;16.478;2022-11-14T19:08:19;100229.94;;;6.99;83.41
19594;BME280;9944;48.240;16.478;2022-11-14T19:12:42;100233.34;;;6.95;83.28
19594;BME280;9944;48.240;16.478;2022-11-14T19:17:06;100229.75;;;6.90;82.94
19594;BME280;9944;48.240;16.478;2022-11-14T19:21:28;100239.25;;;6.83;82.64
19594;BME280;9944;48.240;16.478;2022-11-14T19:25:51;100234.78;;;6.78;82.47
19594;BME280;9944;48.240;16.478;2022-11-14T19:30:15;100227.69;;;6.72;82.65
19594;BME280;9944;48.240;16.478;2022-11-14T19:34:37;100217.03;;;6.63;82.56
19594;BME280;9944;48.240;16.478;2022-11-14T19:38:59;100211.69;;;6.58;82.60
19594;BME280;9944;48.240;16.478;2022-11-14T19:43:22;100213.34;;;6.53;82.58
19594;BME280;9944;48.240;16.478;2022-11-14T19:47:46;100200.97;;;6.46;82.69
19594;BME280;9944;48.240;16.478;2022-11-14T19:52:07;100195.56;;;6.40;82.72
19594;BME280;9944;48.240;16.478;2022-11-14T19:56:29;100199.75;;;6.30;82.97
19594;BME280;9944;48.240;16.478;2022-11-14T20:00:51;100199.66;;;6.25;83.67
19594;BME280;9944;48.240;16.478;2022-11-14T20:05:14;100204.06;;;6.28;84.37
19594;BME280;9944;48.240;16.478;2022-11-14T20:09:36;100197.94;;;6.27;84.70
19594;BME280;9944;48.240;16.478;2022-11-14T20:13:58;100190.94;;;6.28;84.67
19594;BME280;9944;48.240;16.478;2022-11-14T20:18:21;100197.06;;;6.27;84.69
19594;BME280;9944;48.240;16.478;2022-11-14T20:22:45;100197.91;;;6.26;84.98
19594;BME280;9944;48.240;16.478;2022-11-14T20:27:07;100197.09;;;6.28;85.38
19594;BME280;9944;48.240;16.478;2022-11-14T20:31:29;100190.94;;;6.26;85.50
19594;BME280;9944;48.240;16.478;2022-11-14T20:35:51;100187.38;;;6.24;85.89
19594;BME280;9944;48.240;16.478;2022-11-14T20:40:14;100188.25;;;6.23;85.94
19594;BME280;9944;48.240;16.478;2022-11-14T20:44:36;100183.84;;;6.22;85.81
19594;BME280;9944;48.240;16.478;2022-11-14T20:48:58;100186.41;;;6.19;86.29
19594;BME280;9944;48.240;16.478;2022-11-14T20:53:21;100182.94;;;6.20;86.53
19594;BME280;9944;48.240;16.478;2022-11-14T20:57:44;100174.25;;;6.21;87.16
19594;BME280;9944;48.240;16.478;2022-11-14T21:02:06;100166.41;;;6.24;87.12
19594;BME280;9944;48.240;16.478;2022-11-14T21:06:27;100162.94;;;6.25;87.28
19594;BME280;9944;48.240;16.478;2022-11-14T21:10:56;100156.00;;;6.27;87.55
19594;BME280;9944;48.240;16.478;2022-11-14T21:15:20;100156.03;;;6.29;87.68
19594;BME280;9944;48.240;16.478;2022-11-14T21:19:41;100163.03;;;6.28;87.65
19594;BME280;9944;48.240;16.478;2022-11-14T21:24:03;100150.78;;;6.29;87.62
19594;BME280;9944;48.240;16.478;2022-11-14T21:28:26;100150.81;;;6.30;87.64
19594;BME280;9944;48.240;16.478;2022-11-14T21:32:53;100144.72;;;6.33;87.92
19594;BME280;9944;48.240;16.478;2022-11-14T21:37:14;100137.84;;;6.37;88.00
19594;BME280;9944;48.240;16.478;2022-11-14T21:41:36;100139.59;;;6.38;88.11
19594;BME280;9944;48.240;16.478;2022-11-14T21:45:59;100141.38;;;6.39;88.09
19594;BME280;9944;48.240;16.478;2022-11-14T21:50:22;100143.09;;;6.37;88.16
19594;BME280;9944;48.240;16.478;2022-11-14T21:54:44;100139.50;;;6.33;88.05
19594;BME280;9944;48.240;16.478;2022-11-14T21:59:11;100143.88;;;6.33;88.52
19594;BME280;9944;48.240;16.478;2022-11-14T22:03:34;100146.56;;;6.36;88.43
19594;BME280;9944;48.240;16.478;2022-11-14T22:08:15;100135.97;;;6.31;88.13
19594;BME280;9944;48.240;16.478;2022-11-14T22:12:37;100146.44;;;6.31;88.15
19594;BME280;9944;48.240;16.478;2022-11-14T22:16:58;100131.50;;;6.25;88.51
19594;BME280;9944;48.240;16.478;2022-11-14T22:21:20;100138.53;;;6.26;88.36
19594;BME280;9944;48.240;16.478;2022-11-14T22:25:51;100128.00;;;6.25;88.41
19594;BME280;9944;48.240;16.478;2022-11-14T22:30:13;100129.66;;;6.20;88.45
19594;BME280;9944;48.240;16.478;2022-11-14T22:34:34;100121.69;;;6.15;88.86
19594;BME280;9944;48.240;16.478;2022-11-14T22:38:56;100120.84;;;6.16;89.00
19594;BME280;9944;48.240;16.478;2022-11-14T22:43:19;100118.25;;;6.19;89.31
19594;BME280;9944;48.240;16.478;2022-11-14T22:47:41;100114.84;;;6.23;89.51
19594;BME280;9944;48.240;16.478;2022-11-14T22:52:03;100108.75;;;6.24;89.49
19594;BME280;9944;48.240;16.478;2022-11-14T22:56:26;100098.31;;;6.27;89.73
19594;BME280;9944;48.240;16.478;2022-11-14T23:00:50;100092.19;;;6.27;89.97
19594;BME280;9944;48.240;16.478;2022-11-14T23:05:11;100093.97;;;6.29;89.80
19594;BME280;9944;48.240;16.478;2022-11-14T23:09:33;100089.63;;;6.28;89.67
19594;BME280;9944;48.240;16.478;2022-11-14T23:13:56;100102.72;;;6.28;89.43
19594;BME280;9944;48.240;16.478;2022-11-14T23:18:21;100093.94;;;6.26;89.62
19594;BME280;9944;48.240;16.478;2022-11-14T23:22:43;100099.19;;;6.26;89.61
19594;BME280;9944;48.240;16.478;2022-11-14T23:27:05;100092.09;;;6.22;89.48
19594;BME280;9944;48.240;16.478;2022-11-14T23:31:26;100077.25;;;6.21;89.61